Delray Beach, FL

3:20 PM EDT on September 20, 2014 (GMT -0400)
Fort Lauderdale Executive | Change Station
CLOSE
Current Station
Airport
Location: Fort Lauderdale,
Elevation: 13 ft
Nearby Weather Stations

Elev 13 ft 26.20 °N, 80.18 °W | Updated 27 minutes ago

Rain
Rain
81 °F
Feels Like 87 °F
N
9
Wind Variable Wind from WNW

Today
High -- | Low -- °F
--% Chance of Precip.
Yesterday
High -- | Low -- °F
Precip. -- in
7:08 AM 7:18 PM
Waning Crescent, 11% visible
Pressure 29.89 in
Visibility 5.0 miles
Clouds Scattered Clouds 3500 ft
Mostly Cloudy 4500 ft
Overcast 10000 ft
Heat Index 87 °F
Dew Point 76 °F
Humidity 85%
Rainfall 0.04 in
Snow Depth Not available.
UV 3 out of 12
Pollen 3.00 out of 12
Ozone Good
PM2.5 Good
Flu Activity Not available.
METAR KFXE 201853Z 30008KT 5SM TSRA SCT035 BKN045 OVC100 27/24 A2988 RMK AO2 RAB35 TSB35 SLP122 P0001 T02720244

More Conditions Fewer Conditions

Pressure 29.89 in
Visibility 5.0 miles
Clouds Scattered Clouds 3500 ft
Mostly Cloudy 4500 ft
Overcast 10000 ft
Heat Index 87 °F
Dew Point 76 °F
Humidity 85%
Rainfall 0.04 in
Snow Depth Not available.
UV 3 out of 12
Pollen 3.00 out of 12
Ozone Good
PM2.5 Good
Flu Activity Not available.
METAR KFXE 201853Z 30008KT 5SM TSRA SCT035 BKN045 OVC100 27/24 A2988 RMK AO2 RAB35 TSB35 SLP122 P0001 T02720244

More Conditions Fewer Conditions

Nowcast | as of 2:15 PM EDT on September 20, 2014

Scattered showers and storms will continue to develop and increase in coverage across the area through the afternoon hours. The heavier activity is projected to setup and focus over the East Coast and Metro locations. Frequent lightning...gusty winds and heavy rainfall will be possible. Rainfall accumulations will range from a quarter to half of an inch with locally higher amounts possible over these areas.

×

10-Day Weather Forecast

Almanac

Astronomy

Sep. 20, 2014 Rise Set
Actual Time 7:08 AM EDT 7:18 PM EDT
Civil Twilight 6:44 AM EDT 7:42 PM EDT
Nautical Twilight 6:17 AM EDT 8:09 PM EDT
Astronomical Twilight 5:50 AM EDT 8:36 PM EDT
Moon 4:01 AM EDT 5:08 PM EDT
Length of Visible Light 12h 57m
Length of Day
12h 10m
Tomorrow will be 1m 32s shorter.
Waning Crescent, 11% of the Moon is Illuminated
Today
Waning Crescent
Sep 24
New
Oct 1
First Quarter
Oct 8
Full
Oct 15
Last Quarter

Today's Extremes

State Highs State Lows

Community

WunderPhotos

Upload Photos

1,754,927 photos uploaded!

WunderBlogs® & News

Nearby

Air Quality

  Air Quality AQ Index Pollutant
Yesterday Good
PM2.5
Yesterday Good
OZONE
Current Good
PM2.5
Current Good
OZONE
Saturday Good
OZONE
Saturday Good
PM2.5
Sunday Good
OZONE
Sunday Good
PM2.5
Monday Good
OZONE
Monday Good
PM2.5

Snow Depth

Station Depth Elevation
No new snow has been reported.

Earthquake Activity

City Distance Mag. Time & Date
No recent earthquake activity has been reported nearby.
Minimum magnitude displayed is 2.5.

Coastal Water Temperatures

Place Temperature
Lake Worth, FL 86.0 °F
Virginia Key, FL 84.9 °F

Nearby Weather Stations